Time;durP1;ratioP1;P1;durP2;ratioP2;P2;SDS_P1;SDS_P2;PMS_P1;PMS_P2;Temp;Humidity;BMP_temperature;BMP_pressure;BME280_temperature;BME280_humidity;BME280_pressure;Samples;Min_cycle;Max_cycle;Signal;HPM_P1;HPM_P2
2021/06/08 00:01:04;;;;;;;18.40;11.13;;;17.30;78.90;;;;;;5084727;28;20039;-74
2021/06/08 00:03:29;;;;;;;13.40;9.52;;;17.20;79.00;;;;;;5077479;28;20504;-74
2021/06/08 00:05:56;;;;;;;10.68;9.52;;;17.20;79.10;;;;;;5078715;28;20127;-74
2021/06/08 00:08:22;;;;;;;11.10;9.48;;;17.20;79.10;;;;;;5105096;28;20020;-74
2021/06/08 00:10:47;;;;;;;12.75;10.43;;;17.20;79.10;;;;;;5094099;28;20031;-78
2021/06/08 00:13:13;;;;;;;14.30;9.85;;;17.20;79.00;;;;;;5103661;28;20119;-78
2021/06/08 00:15:39;;;;;;;11.95;9.95;;;17.20;79.10;;;;;;5096213;28;20475;-78
2021/06/08 00:18:05;;;;;;;14.40;10.48;;;17.10;79.20;;;;;;5077579;28;20085;-78
2021/06/08 00:20:30;;;;;;;15.15;10.10;;;17.10;79.40;;;;;;5080150;28;20107;-78
2021/06/08 00:22:56;;;;;;;14.35;11.48;;;17.00;79.60;;;;;;5106796;28;20515;-79
2021/06/08 00:25:22;;;;;;;12.38;10.63;;;17.00;79.70;;;;;;5114517;28;20375;-79
2021/06/08 00:27:48;;;;;;;12.30;10.43;;;17.00;79.80;;;;;;5046923;28;20040;-78
2021/06/08 00:30:14;;;;;;;12.20;10.90;;;16.90;79.80;;;;;;5093914;28;20024;-78
2021/06/08 00:32:40;;;;;;;15.52;10.13;;;16.90;79.80;;;;;;5107446;28;20387;-78
2021/06/08 00:35:06;;;;;;;11.90;10.60;;;16.90;79.90;;;;;;5112382;28;20034;-78
2021/06/08 00:37:32;;;;;;;11.77;9.80;;;16.80;79.90;;;;;;5094032;28;20056;-78
2021/06/08 00:39:57;;;;;;;14.45;10.75;;;16.80;80.00;;;;;;5075707;28;20078;-78
2021/06/08 00:42:32;;;;;;;14.60;10.93;;;16.80;80.10;;;;;;5088938;28;20039;-82
2021/06/08 00:44:58;;;;;;;12.55;11.02;;;16.80;80.30;;;;;;5114068;28;20038;-82
2021/06/08 00:47:24;;;;;;;16.60;11.25;;;16.70;80.20;;;;;;5094275;28;20476;-82
2021/06/08 00:49:49;;;;;;;12.95;10.98;;;16.70;80.30;;;;;;5092931;28;20035;-82
2021/06/08 00:52:15;;;;;;;13.68;11.27;;;16.70;80.40;;;;;;5105749;28;20023;-82
2021/06/08 00:54:41;;;;;;;15.05;12.43;;;16.70;81.10;;;;;;5114352;28;20020;-82
2021/06/08 00:57:07;;;;;;;12.43;11.23;;;16.70;80.40;;;;;;5071159;28;20529;-82
2021/06/08 00:59:33;;;;;;;14.23;11.73;;;16.60;80.50;;;;;;5093543;28;20514;-82
2021/06/08 01:01:59;;;;;;;14.35;11.00;;;16.60;80.60;;;;;;5075384;28;20035;-82
2021/06/08 01:04:24;;;;;;;12.80;10.73;;;16.60;80.60;;;;;;5093487;28;20111;-82
2021/06/08 01:06:50;;;;;;;13.68;10.50;;;16.60;80.60;;;;;;5089846;28;20043;-82
2021/06/08 01:09:16;;;;;;;11.93;10.35;;;16.50;80.60;;;;;;5098669;28;20066;-82
2021/06/08 01:11:42;;;;;;;13.23;10.77;;;16.50;80.60;;;;;;5075325;28;20016;-82
2021/06/08 01:14:07;;;;;;;13.07;10.93;;;16.50;80.50;;;;;;5093451;28;20074;-81
2021/06/08 01:16:33;;;;;;;12.15;10.90;;;16.50;80.60;;;;;;5093237;28;20419;-82
2021/06/08 01:18:59;;;;;;;11.32;10.20;;;16.50;80.60;;;;;;5093475;28;20043;-82
2021/06/08 01:21:27;;;;;;;11.60;9.48;;;16.40;80.70;;;;;;5075348;28;20608;-82
2021/06/08 01:23:54;;;;;;;11.85;10.57;;;16.40;81.50;;;;;;5093291;28;20545;-81
2021/06/08 01:26:23;;;;;;;12.38;11.05;;;16.40;80.90;;;;;;5075492;28;20126;-82
2021/06/08 01:28:49;;;;;;;12.50;11.13;;;16.40;81.00;;;;;;5093373;28;20016;-82
2021/06/08 01:31:19;;;;;;;13.35;10.85;;;16.40;81.00;;;;;;5081976;28;20027;-81
2021/06/08 01:33:46;;;;;;;12.70;11.27;;;16.30;81.00;;;;;;5109818;28;20043;-82
2021/06/08 01:36:15;;;;;;;15.68;12.18;;;16.30;81.00;;;;;;5100213;28;20111;-82
2021/06/08 01:38:42;;;;;;;15.23;11.50;;;16.30;81.00;;;;;;5098040;28;20027;-82
2021/06/08 01:41:11;;;;;;;13.80;11.18;;;16.30;81.00;;;;;;5099659;28;20036;-82
2021/06/08 01:43:36;;;;;;;13.00;10.75;;;16.30;81.00;;;;;;5103512;28;20086;-82
2021/06/08 01:46:02;;;;;;;13.25;11.48;;;16.30;80.90;;;;;;5099431;28;20477;-81
2021/06/08 01:48:28;;;;;;;13.00;11.57;;;16.30;81.50;;;;;;5100369;28;20035;-81
2021/06/08 01:51:00;;;;;;;14.73;12.10;;;16.20;80.80;;;;;;5104486;28;20031;-81
2021/06/08 01:53:35;;;;;;;15.75;11.07;;;16.20;81.00;;;;;;5097652;28;20445;-82
2021/06/08 01:56:07;;;;;;;13.38;11.60;;;16.20;81.00;;;;;;5096915;28;20028;-81
2021/06/08 01:58:45;;;;;;;13.05;10.73;;;16.10;81.10;;;;;;5124458;28;20028;-81
2021/06/08 02:01:15;;;;;;;14.48;10.90;;;16.10;81.20;;;;;;5115433;28;20426;-80
2021/06/08 02:03:57;;;;;;;12.55;11.23;;;16.10;81.20;;;;;;5108604;28;20500;-82
2021/06/08 02:06:42;;;;;;;13.30;11.57;;;16.10;81.30;;;;;;5094126;28;20492;-82
2021/06/08 02:09:19;;;;;;;15.88;11.25;;;16.00;81.20;;;;;;5108144;28;20022;-82
2021/06/08 02:12:00;;;;;;;13.40;11.00;;;16.00;81.30;;;;;;5108162;28;20472;-82
2021/06/08 02:14:40;;;;;;;13.82;11.15;;;16.00;81.30;;;;;;5104241;28;20526;-82
2021/06/08 02:17:22;;;;;;;14.75;11.40;;;16.00;81.20;;;;;;5116207;28;20028;-81
2021/06/08 02:19:51;;;;;;;14.75;12.05;;;16.00;81.10;;;;;;5104552;28;20012;-82
2021/06/08 02:22:21;;;;;;;14.73;11.63;;;15.90;81.10;;;;;;5098010;28;20024;-81
2021/06/08 02:24:48;;;;;;;14.25;11.98;;;15.90;81.10;;;;;;5104790;28;20024;-81
2021/06/08 02:27:17;;;;;;;14.77;11.15;;;15.90;81.00;;;;;;5109993;28;20417;-81
2021/06/08 02:29:47;;;;;;;12.30;10.95;;;15.80;81.10;;;;;;5105707;28;20059;-81
2021/06/08 02:32:15;;;;;;;14.63;11.88;;;15.80;81.10;;;;;;5091137;28;20035;-81
2021/06/08 02:34:42;;;;;;;16.13;12.63;;;15.80;81.20;;;;;;5097476;28;20484;-81
2021/06/08 02:37:10;;;;;;;14.30;12.23;;;15.80;81.20;;;;;;5083420;28;20028;-82
2021/06/08 02:39:40;;;;;;;14.60;11.98;;;15.80;81.80;;;;;;5097568;28;20093;-81
2021/06/08 02:42:10;;;;;;;13.05;11.77;;;15.80;81.30;;;;;;5115762;28;20016;-81
2021/06/08 02:44:37;;;;;;;12.82;11.52;;;15.70;81.30;;;;;;5115301;28;20035;-82
2021/06/08 02:47:03;;;;;;;12.95;11.68;;;15.70;81.40;;;;;;5111362;28;20016;-82
2021/06/08 02:49:29;;;;;;;13.80;10.70;;;15.70;81.40;;;;;;5079704;28;20062;-81
2021/06/08 02:51:56;;;;;;;11.70;10.50;;;15.70;81.50;;;;;;5082215;28;20059;-80
2021/06/08 02:54:23;;;;;;;13.27;11.88;;;15.60;81.50;;;;;;5104385;28;20028;-82
2021/06/08 02:56:49;;;;;;;13.32;10.80;;;15.60;81.60;;;;;;5104395;28;20488;-82
2021/06/08 02:59:16;;;;;;;14.50;11.95;;;15.50;81.60;;;;;;5099701;28;20093;-81
2021/06/08 03:01:47;;;;;;;13.50;11.32;;;15.50;81.70;;;;;;5082671;28;20024;-82
2021/06/08 03:04:17;;;;;;;13.88;11.27;;;15.50;81.80;;;;;;5105255;28;20028;-82
2021/06/08 03:06:54;;;;;;;13.93;10.77;;;15.40;81.80;;;;;;5101984;28;20043;-82
2021/06/08 03:09:31;;;;;;;14.52;11.32;;;15.40;82.00;;;;;;5107277;28;20020;-82
2021/06/08 03:11:58;;;;;;;12.32;11.13;;;15.40;82.00;;;;;;5108869;28;20036;-83
2021/06/08 03:14:24;;;;;;;12.15;10.27;;;15.30;81.80;;;;;;5104729;28;20106;-82
2021/06/08 03:16:55;;;;;;;14.02;11.45;;;15.40;81.80;;;;;;5106757;28;20031;-82
2021/06/08 03:19:24;;;;;;;12.13;10.25;;;15.40;81.90;;;;;;5094137;28;20066;-82
2021/06/08 03:21:52;;;;;;;12.10;10.88;;;15.30;81.80;;;;;;5096932;28;20570;-82
2021/06/08 03:24:21;;;;;;;11.97;10.63;;;15.30;81.80;;;;;;5097559;28;20038;-81
2021/06/08 03:26:48;;;;;;;12.77;10.18;;;15.30;81.70;;;;;;5111387;28;20026;-81
2021/06/08 03:29:16;;;;;;;10.98;9.88;;;15.30;82.40;;;;;;5099714;28;20023;-81
2021/06/08 03:31:45;;;;;;;14.43;10.38;;;15.30;81.80;;;;;;5099223;28;20016;-81
2021/06/08 03:34:15;;;;;;;;;;;15.20;81.80;;;;;;5110885;28;20031;-82
2021/06/08 03:36:45;;;;;;;11.93;10.52;;;15.20;81.60;;;;;;5104726;28;19926;-81
2021/06/08 03:39:12;;;;;;;12.73;10.70;;;15.10;81.90;;;;;;5111539;28;20031;-81
2021/06/08 03:41:38;;;;;;;13.23;10.95;;;15.10;81.90;;;;;;5098315;28;20511;-82
2021/06/08 03:44:05;;;;;;;11.43;10.23;;;15.10;81.90;;;;;;5094290;28;20024;-81
2021/06/08 03:46:34;;;;;;;14.48;10.57;;;15.10;81.90;;;;;;5087248;28;20031;-81
2021/06/08 03:48:59;;;;;;;12.50;11.20;;;15.10;81.90;;;;;;5098947;28;20039;-82
2021/06/08 03:51:30;;;;;;;18.00;11.70;;;15.20;81.90;;;;;;5105993;28;20032;-81
2021/06/08 03:53:57;;;;;;;13.30;11.90;;;15.10;81.90;;;;;;5079503;28;20107;-80
2021/06/08 03:56:24;;;;;;;12.70;10.50;;;15.10;81.90;;;;;;5108042;28;20111;-81
2021/06/08 03:58:52;;;;;;;14.32;10.40;;;15.10;82.00;;;;;;5104475;28;20028;-81
2021/06/08 04:01:20;;;;;;;13.05;11.63;;;15.10;82.00;;;;;;5111500;28;20050;-80
2021/06/08 04:03:47;;;;;;;16.15;11.35;;;15.10;82.10;;;;;;5107722;28;20036;-82
2021/06/08 04:06:23;;;;;;;14.93;11.88;;;15.10;82.20;;;;;;5100395;28;20043;-81
2021/06/08 04:08:49;;;;;;;12.25;10.65;;;15.10;83.00;;;;;;5106987;28;20047;-81
2021/06/08 04:11:18;;;;;;;11.68;10.50;;;15.10;82.30;;;;;;5075716;28;20493;-81
2021/06/08 04:13:44;;;;;;;12.23;10.35;;;15.10;82.40;;;;;;5097370;28;20035;-81
2021/06/08 04:16:11;;;;;;;13.07;10.48;;;15.20;82.50;;;;;;5104492;28;20077;-80
2021/06/08 04:18:39;;;;;;;14.10;11.10;;;15.20;82.40;;;;;;5063888;28;20499;-81
2021/06/08 04:21:05;;;;;;;12.52;9.75;;;15.20;82.40;;;;;;5093577;28;20093;-81
2021/06/08 04:23:31;;;;;;;12.88;10.18;;;15.20;82.20;;;;;;5084032;28;20486;-82
2021/06/08 04:25:57;;;;;;;12.77;9.77;;;15.10;82.20;;;;;;5107025;28;20096;-81
2021/06/08 04:28:25;;;;;;;11.45;9.48;;;15.20;82.20;;;;;;5092970;28;20032;-81
2021/06/08 04:30:52;;;;;;;12.32;9.90;;;15.20;82.10;;;;;;5093635;28;20023;-81
2021/06/08 04:33:22;;;;;;;14.48;10.07;;;15.20;82.10;;;;;;5081627;28;20543;-82
2021/06/08 04:35:48;;;;;;;14.75;9.32;;;15.30;82.10;;;;;;5086630;28;20108;-80
2021/06/08 04:38:18;;;;;;;17.25;10.05;;;15.30;81.60;;;;;;5093293;28;20035;-81
2021/06/08 04:40:46;;;;;;;11.45;9.52;;;15.40;81.20;;;;;;5093200;28;20077;-81
2021/06/08 04:43:12;;;;;;;11.95;9.30;;;15.40;80.80;;;;;;5075418;28;20059;-81
2021/06/08 04:45:39;;;;;;;9.93;8.93;;;15.40;80.70;;;;;;5098026;28;20031;-81
2021/06/08 04:48:05;;;;;;;14.63;9.95;;;15.40;80.70;;;;;;5079097;28;20042;-81
2021/06/08 04:50:31;;;;;;;10.00;9.00;;;15.50;80.80;;;;;;5089150;28;20028;-82
2021/06/08 04:52:57;;;;;;;16.20;9.52;;;15.50;80.60;;;;;;5096800;28;20424;-81
2021/06/08 04:55:26;;;;;;;11.50;9.73;;;15.50;80.60;;;;;;5108670;28;20060;-81
2021/06/08 04:57:52;;;;;;;;;;;15.50;80.30;;;;;;5100854;28;20032;-82
2021/06/08 05:00:18;;;;;;;9.45;8.02;;;15.60;80.00;;;;;;5089874;28;19911;-81
2021/06/08 05:02:51;;;;;;;15.82;9.70;;;15.60;80.20;;;;;;5098949;28;20028;-82
2021/06/08 05:05:25;;;;;;;11.05;8.88;;;15.60;80.00;;;;;;5093401;28;20028;-82
2021/06/08 05:08:04;;;;;;;9.35;7.85;;;15.60;79.80;;;;;;5093290;28;20040;-82
2021/06/08 05:10:33;;;;;;;15.63;10.38;;;15.70;79.90;;;;;;5093367;28;20107;-82
2021/06/08 05:12:59;;;;;;;;;;;15.70;79.80;;;;;;5099385;28;20015;-82
2021/06/08 05:15:26;;;;;;;8.57;7.20;;;15.80;79.70;;;;;;5113734;28;19941;-82
2021/06/08 05:17:54;;;;;;;12.70;9.07;;;15.80;79.90;;;;;;5110916;28;20016;-82
2021/06/08 05:20:21;;;;;;;10.98;8.27;;;15.80;79.60;;;;;;5112193;28;20027;-84
2021/06/08 05:22:49;;;;;;;10.88;8.30;;;15.90;79.30;;;;;;5096156;28;20044;-84
2021/06/08 05:25:15;;;;;;;13.40;9.32;;;15.90;79.40;;;;;;5114539;28;20028;-83
2021/06/08 05:27:40;;;;;;;12.68;10.18;;;16.00;79.40;;;;;;5088749;28;20051;-84
2021/06/08 05:30:09;;;;;;;9.98;8.95;;;16.00;79.40;;;;;;5113964;28;20024;-84
2021/06/08 05:32:37;;;;;;;13.75;8.60;;;16.00;79.40;;;;;;5113933;28;20051;-84
2021/06/08 05:35:03;;;;;;;12.47;8.27;;;16.10;79.20;;;;;;5097240;28;20038;-79
2021/06/08 05:37:38;;;;;;;15.05;8.88;;;16.10;79.10;;;;;;5085029;28;20274;-79
2021/06/08 05:40:04;;;;;;;11.95;9.43;;;16.20;78.60;;;;;;5107221;28;20073;-79
2021/06/08 05:42:30;;;;;;;23.65;9.48;;;16.20;78.50;;;;;;5079163;28;20028;-79
2021/06/08 05:44:56;;;;;;;9.57;8.57;;;16.30;78.40;;;;;;5088750;28;20039;-79
2021/06/08 05:47:21;;;;;;;9.68;8.32;;;16.30;78.40;;;;;;5077697;28;20028;-79
2021/06/08 05:49:47;;;;;;;11.30;8.85;;;16.40;78.40;;;;;;5107299;28;20024;-80
2021/06/08 05:52:13;;;;;;;11.13;9.15;;;16.50;78.10;;;;;;5096154;28;20031;-80
2021/06/08 05:54:39;;;;;;;12.82;9.57;;;16.50;77.70;;;;;;5080109;28;20043;-80
2021/06/08 05:57:08;;;;;;;15.07;9.57;;;16.60;77.90;;;;;;5105889;28;20032;-79
2021/06/08 05:59:35;;;;;;;10.75;8.95;;;16.70;77.90;;;;;;5116644;28;20020;-79
2021/06/08 06:02:01;;;;;;;12.68;9.30;;;16.80;77.60;;;;;;5105338;28;20511;-79
2021/06/08 06:04:27;;;;;;;14.20;9.40;;;16.80;77.50;;;;;;5097079;28;20036;-79
2021/06/08 06:06:53;;;;;;;12.95;8.57;;;17.00;77.60;;;;;;5099060;28;20048;-79
2021/06/08 06:09:22;;;;;;;20.15;8.68;;;17.00;77.20;;;;;;5116528;28;20027;-79
2021/06/08 06:11:51;;;;;;;;;;;17.10;77.00;;;;;;5117452;28;20043;-79
2021/06/08 06:14:21;;;;;;;11.15;7.95;;;17.20;76.60;;;;;;5091290;28;20288;-79
2021/06/08 06:16:51;;;;;;;13.48;8.65;;;17.40;76.40;;;;;;5096461;28;20051;-79
2021/06/08 06:19:17;;;;;;;9.95;8.95;;;17.40;75.60;;;;;;5112433;28;20137;-79
2021/06/08 06:21:44;;;;;;;13.70;9.35;;;17.50;75.10;;;;;;5103185;28;20024;-79
2021/06/08 06:24:13;;;;;;;9.73;8.70;;;17.70;74.80;;;;;;5098311;28;20055;-79
2021/06/08 06:26:40;;;;;;;10.70;8.40;;;17.70;74.40;;;;;;5115485;28;20102;-79
2021/06/08 06:29:08;;;;;;;10.38;8.15;;;17.80;74.00;;;;;;5110157;28;20054;-79
2021/06/08 06:31:34;;;;;;;15.27;8.07;;;17.90;73.70;;;;;;5078041;28;20016;-79
2021/06/08 06:34:00;;;;;;;11.07;8.60;;;18.00;73.60;;;;;;5103687;28;20159;-79
2021/06/08 06:36:28;;;;;;;10.65;9.02;;;18.20;73.40;;;;;;5116455;28;20464;-79
2021/06/08 06:38:58;;;;;;;11.20;8.43;;;18.20;73.20;;;;;;5109871;28;20023;-79
2021/06/08 06:41:24;;;;;;;11.50;8.65;;;18.40;72.90;;;;;;5116298;28;20031;-79
2021/06/08 06:43:53;;;;;;;12.00;9.07;;;18.40;72.50;;;;;;5098155;28;20049;-79
2021/06/08 06:46:19;;;;;;;;;;;18.60;72.00;;;;;;5110177;28;20074;-79
2021/06/08 06:48:46;;;;;;;12.55;8.10;;;18.60;71.80;;;;;;5110085;28;19947;-79
2021/06/08 06:51:13;;;;;;;11.82;7.57;;;18.80;71.50;;;;;;5097690;28;20028;-79
2021/06/08 06:53:40;;;;;;;9.45;8.00;;;18.90;71.00;;;;;;5091072;28;20028;-79
2021/06/08 06:56:06;;;;;;;10.50;7.72;;;19.10;70.40;;;;;;5095669;28;20103;-79
2021/06/08 06:58:33;;;;;;;11.85;9.30;;;19.30;69.70;;;;;;5098147;28;20051;-79
2021/06/08 07:01:01;;;;;;;14.13;9.00;;;19.40;68.30;;;;;;5097472;28;20028;-79
2021/06/08 07:03:31;;;;;;;10.15;7.95;;;19.50;68.00;;;;;;5115651;28;20488;-79
2021/06/08 07:06:15;;;;;;;14.35;8.20;;;19.50;67.50;;;;;;5083970;28;20061;-79
2021/06/08 07:08:41;;;;;;;9.70;8.73;;;19.60;67.80;;;;;;5093679;28;20032;-79
2021/06/08 07:11:07;;;;;;;11.65;9.55;;;19.80;67.90;;;;;;5097600;28;20031;-79
2021/06/08 07:13:33;;;;;;;10.40;8.32;;;19.90;67.50;;;;;;5090862;28;20102;-79
2021/06/08 07:15:59;;;;;;;10.88;8.30;;;20.10;67.40;;;;;;5107710;28;20514;-79
2021/06/08 07:18:25;;;;;;;9.07;7.80;;;20.30;67.00;;;;;;5090962;28;20036;-79
2021/06/08 07:20:51;;;;;;;9.85;8.27;;;20.40;66.40;;;;;;5097416;28;20023;-79
2021/06/08 07:29:13;;;;;;;11.55;7.43;;;20.80;65.10;;;;;;5106755;28;20028;-79
2021/06/08 07:32:00;;;;;;;12.38;8.25;;;20.90;64.90;;;;;;5097337;28;20024;-80
2021/06/08 07:34:43;;;;;;;9.52;8.30;;;21.00;64.60;;;;;;5111797;28;20031;-79
2021/06/08 07:37:17;;;;;;;8.93;8.02;;;21.10;64.50;;;;;;5106630;28;20100;-80
2021/06/08 07:39:48;;;;;;;8.10;7.15;;;21.20;64.50;;;;;;5107338;28;20530;-80
2021/06/08 07:42:22;;;;;;;9.65;8.57;;;21.30;64.40;;;;;;5110642;28;20048;-80
2021/06/08 07:44:58;;;;;;;10.07;7.93;;;21.40;63.80;;;;;;5115286;28;20031;-79
2021/06/08 07:47:27;;;;;;;11.88;7.70;;;21.50;63.30;;;;;;5115322;28;20026;-79
2021/06/08 07:49:54;;;;;;;12.13;8.63;;;21.60;63.60;;;;;;5097197;28;20383;-79
2021/06/08 07:52:21;;;;;;;14.50;8.38;;;21.80;63.10;;;;;;5102295;28;20016;-79
2021/06/08 07:54:50;;;;;;;9.52;8.35;;;21.90;62.70;;;;;;5115055;28;20043;-79
2021/06/08 07:57:17;;;;;;;9.50;6.75;;;21.90;62.30;;;;;;5114501;28;20035;-75
2021/06/08 07:59:44;;;;;;;10.18;6.57;;;22.00;61.60;;;;;;5079324;28;20468;-75
2021/06/08 08:02:10;;;;;;;11.38;8.43;;;22.10;61.30;;;;;;5096188;28;20039;-76
2021/06/08 08:04:41;;;;;;;9.90;7.80;;;22.20;60.00;;;;;;5061611;28;20046;-75
2021/06/08 08:07:08;;;;;;;10.63;7.18;;;22.20;60.70;;;;;;5095855;28;20040;-76
2021/06/08 08:09:33;;;;;;;7.30;5.78;;;22.30;60.70;;;;;;5079417;28;20028;-75
2021/06/08 08:12:00;;;;;;;9.85;5.75;;;22.40;59.70;;;;;;5114331;28;20031;-75
2021/06/08 08:14:26;;;;;;;14.38;8.07;;;22.60;59.30;;;;;;5094502;28;20131;-74
2021/06/08 08:16:54;;;;;;;12.68;7.43;;;22.70;58.80;;;;;;5075856;28;20444;-74
2021/06/08 08:19:21;;;;;;;9.00;7.80;;;22.80;59.30;;;;;;5075994;28;20028;-75
2021/06/08 08:21:47;;;;;;;8.35;6.30;;;22.80;58.80;;;;;;5075548;28;20040;-75
2021/06/08 08:24:13;;;;;;;7.30;6.55;;;22.90;58.20;;;;;;5092032;28;20059;-74
2021/06/08 08:26:39;;;;;;;9.23;6.28;;;23.00;57.70;;;;;;5113895;28;20059;-75
2021/06/08 08:29:06;;;;;;;9.77;7.47;;;23.10;57.50;;;;;;5078768;28;20040;-74
2021/06/08 08:31:32;;;;;;;15.15;8.20;;;23.30;57.20;;;;;;5095740;28;20106;-75
2021/06/08 08:33:59;;;;;;;13.10;8.98;;;23.30;56.30;;;;;;5099662;28;20115;-74
2021/06/08 08:36:33;;;;;;;10.63;8.43;;;23.30;56.80;;;;;;5075402;28;20032;-74
2021/06/08 08:39:00;;;;;;;9.70;8.20;;;23.40;57.00;;;;;;5075276;28;20024;-74
2021/06/08 08:41:27;;;;;;;9.32;8.05;;;23.50;57.00;;;;;;5093350;28;20055;-74
2021/06/08 08:43:54;;;;;;;10.82;8.88;;;23.60;57.10;;;;;;5106437;28;20031;-74
2021/06/08 08:46:20;;;;;;;10.52;9.07;;;23.60;57.30;;;;;;5102762;28;20035;-75
2021/06/08 08:48:52;;;;;;;13.77;9.73;;;23.70;58.60;;;;;;5058448;28;20053;-74
2021/06/08 08:51:18;;;;;;;10.48;8.40;;;23.80;57.40;;;;;;5093153;28;20069;-74
2021/06/08 08:53:45;;;;;;;10.23;6.70;;;23.80;57.20;;;;;;5093173;28;20028;-75
2021/06/08 08:56:10;;;;;;;8.15;6.38;;;23.90;57.70;;;;;;5083022;28;20476;-75
2021/06/08 08:58:37;;;;;;;7.93;6.40;;;24.00;56.50;;;;;;5113356;28;20068;-75
2021/06/08 09:01:03;;;;;;;10.10;6.80;;;24.20;55.80;;;;;;5078242;28;20408;-75
2021/06/08 09:03:29;;;;;;;10.18;7.40;;;24.30;55.00;;;;;;5078118;28;20035;-74
2021/06/08 09:05:59;;;;;;;12.98;6.80;;;24.30;54.00;;;;;;5068928;28;20052;-75
2021/06/08 09:08:25;;;;;;;7.93;5.63;;;24.30;54.10;;;;;;5090702;28;20081;-74
2021/06/08 09:10:54;;;;;;;7.68;5.97;;;24.40;52.60;;;;;;5091207;28;20032;-74
2021/06/08 09:13:20;;;;;;;8.75;5.90;;;24.40;52.40;;;;;;5093063;28;20061;-75
2021/06/08 09:15:46;;;;;;;7.68;5.97;;;24.40;52.70;;;;;;5089067;28;20033;-75
2021/06/08 09:18:12;;;;;;;9.82;7.10;;;24.60;52.50;;;;;;5071551;28;20032;-74
2021/06/08 09:20:38;;;;;;;8.23;6.40;;;24.80;51.60;;;;;;5078449;28;20059;-74
2021/06/08 09:23:09;;;;;;;7.70;6.50;;;24.80;51.40;;;;;;5091366;28;20131;-75
2021/06/08 09:25:38;;;;;;;9.32;7.35;;;25.00;51.70;;;;;;5092909;28;20036;-75
2021/06/08 09:28:21;;;;;;;;;;;25.10;51.40;;;;;;5092022;28;20540;-75
2021/06/08 09:31:21;;;;;;;8.10;6.82;;;25.10;50.70;;;;;;5076667;28;19935;-74
2021/06/08 09:33:52;;;;;;;10.77;7.07;;;25.00;51.10;;;;;;5071302;28;20036;-75
2021/06/08 09:36:29;;;;;;;8.57;5.80;;;25.10;50.00;;;;;;5055267;28;20028;-74
2021/06/08 09:39:00;;;;;;;6.72;5.57;;;25.20;50.20;;;;;;5072550;28;20031;-75
2021/06/08 09:41:32;;;;;;;10.52;4.97;;;25.20;47.60;;;;;;5091342;28;20035;-75
2021/06/08 09:44:10;;;;;;;5.22;4.72;;;25.10;47.90;;;;;;5092687;28;20024;-75
2021/06/08 09:46:42;;;;;;;;;;;25.20;47.70;;;;;;5093159;28;20020;-75
2021/06/08 09:49:08;;;;;;;6.40;4.78;;;25.20;48.50;;;;;;5091425;28;20386;-74
2021/06/08 09:51:58;;;;;;;7.78;5.78;;;25.30;48.80;;;;;;5055791;28;20028;-74
2021/06/08 09:54:40;;;;;;;9.77;6.30;;;25.50;48.70;;;;;;5071528;28;20424;-75
2021/06/08 09:57:28;;;;;;;7.90;4.85;;;25.60;48.70;;;;;;5071093;28;20020;-74
2021/06/08 09:59:58;;;;;;;11.05;6.20;;;25.60;48.60;;;;;;5067783;28;20020;-75
2021/06/08 10:02:49;;;;;;;8.05;7.15;;;25.80;47.00;;;;;;5089016;28;20039;-75
2021/06/08 10:05:23;;;;;;;7.63;5.53;;;25.70;46.20;;;;;;5071265;28;20055;-74
2021/06/08 10:07:58;;;;;;;6.32;5.32;;;25.60;47.80;;;;;;5070954;28;20059;-75
2021/06/08 10:10:39;;;;;;;7.30;4.97;;;25.70;47.50;;;;;;5071232;28;20448;-74
2021/06/08 10:13:07;;;;;;;8.40;5.60;;;25.70;46.70;;;;;;5084572;28;20488;-74
2021/06/08 10:15:50;;;;;;;6.35;5.25;;;25.80;46.70;;;;;;5075509;28;20043;-74
2021/06/08 10:18:16;;;;;;;6.97;5.60;;;26.00;46.20;;;;;;5084885;28;20028;-74
2021/06/08 10:20:48;;;;;;;6.60;5.38;;;25.90;45.80;;;;;;5089451;28;20395;-74
2021/06/08 10:23:35;;;;;;;5.43;3.70;;;26.00;45.40;;;;;;5084790;28;20075;-74
2021/06/08 10:26:10;;;;;;;5.85;4.20;;;25.90;45.40;;;;;;5088048;28;20033;-74
2021/06/08 10:28:36;;;;;;;10.18;5.85;;;26.00;45.80;;;;;;5078298;28;20032;-75
2021/06/08 10:31:03;;;;;;;9.57;5.80;;;26.10;45.60;;;;;;5091382;28;20025;-75
2021/06/08 10:33:29;;;;;;;6.82;5.07;;;26.20;45.40;;;;;;5075922;28;20028;-75
2021/06/08 10:35:55;;;;;;;7.60;5.22;;;26.30;45.70;;;;;;5057731;28;20029;-74
2021/06/08 10:38:23;;;;;;;6.63;4.53;;;26.40;46.90;;;;;;5074227;28;20031;-75
2021/06/08 10:40:53;;;;;;;9.40;6.20;;;26.50;46.90;;;;;;5075569;28;20034;-75
2021/06/08 10:43:28;;;;;;;8.07;6.20;;;26.70;45.30;;;;;;5085744;28;20269;-74
2021/06/08 10:45:56;;;;;;;6.68;5.45;;;26.60;45.60;;;;;;5094892;28;20058;-74
2021/06/08 10:48:40;;;;;;;8.43;5.47;;;26.60;46.60;;;;;;5088003;28;20017;-74
2021/06/08 10:51:10;;;;;;;4.57;3.95;;;26.70;46.20;;;;;;5075436;28;20062;-74
2021/06/08 10:53:39;;;;;;;7.88;6.30;;;26.80;46.60;;;;;;5081041;28;20059;-74
2021/06/08 10:56:23;;;;;;;;;;;26.90;45.00;;;;;;5075494;28;20028;-74
2021/06/08 10:58:57;;;;;;;8.80;6.80;;;26.80;45.80;;;;;;5075053;28;19904;-74
2021/06/08 11:01:39;;;;;;;7.72;6.25;;;26.70;45.70;;;;;;5079252;28;20044;-75
2021/06/08 11:04:12;;;;;;;9.25;6.25;;;26.70;46.60;;;;;;5075885;28;20485;-75
2021/06/08 11:06:37;;;;;;;5.80;5.20;;;26.70;45.70;;;;;;5073824;28;20417;-75
2021/06/08 11:09:13;;;;;;;6.28;5.10;;;26.70;45.70;;;;;;5085828;28;20069;-75
2021/06/08 11:11:44;;;;;;;6.60;5.43;;;26.70;45.80;;;;;;5080323;28;20027;-74
2021/06/08 11:14:29;;;;;;;4.95;4.05;;;26.80;43.60;;;;;;5075774;28;20020;-74
2021/06/08 11:17:12;;;;;;;5.63;4.30;;;26.80;45.00;;;;;;5080283;28;20056;-74
2021/06/08 11:19:44;;;;;;;7.30;4.75;;;26.90;44.80;;;;;;5093230;28;20028;-75
2021/06/08 11:22:12;;;;;;;4.70;3.90;;;27.00;44.70;;;;;;5073344;28;20343;-75
2021/06/08 11:24:40;;;;;;;4.53;3.83;;;27.10;44.60;;;;;;5087674;28;20032;-75
2021/06/08 11:27:06;;;;;;;6.20;4.30;;;27.20;44.40;;;;;;5076720;28;20510;-75
2021/06/08 11:29:56;;;;;;;6.40;5.80;;;27.30;44.70;;;;;;5093540;28;20058;-75
2021/06/08 11:32:32;;;;;;;7.88;4.68;;;27.50;44.80;;;;;;5093015;28;20028;-75
2021/06/08 11:35:18;;;;;;;7.18;5.57;;;27.60;44.50;;;;;;5094205;28;20024;-75
2021/06/08 11:37:53;;;;;;;5.68;4.60;;;27.50;43.10;;;;;;5093110;28;20123;-75
2021/06/08 11:40:38;;;;;;;6.07;4.40;;;27.30;44.90;;;;;;5094469;28;20024;-75
2021/06/08 11:43:27;;;;;;;6.30;5.03;;;27.40;44.50;;;;;;5094526;28;20400;-74
2021/06/08 11:46:13;;;;;;;6.22;5.32;;;27.40;44.00;;;;;;5069011;28;20047;-75
2021/06/08 11:49:05;;;;;;;7.75;4.07;;;27.30;42.90;;;;;;5073978;28;20402;-75
2021/06/08 11:51:47;;;;;;;6.28;3.50;;;27.20;43.20;;;;;;5074054;28;20103;-75
2021/06/08 11:54:16;;;;;;;3.67;3.30;;;27.10;45.00;;;;;;5072665;28;20025;-76
2021/06/08 11:57:05;;;;;;;3.83;2.95;;;27.30;43.40;;;;;;5074365;28;20099;-75
2021/06/08 11:59:43;;;;;;;5.15;4.50;;;27.60;42.80;;;;;;5072631;28;20024;-75
2021/06/08 12:02:25;;;;;;;4.67;4.20;;;27.70;41.70;;;;;;5073786;28;20035;-75
2021/06/08 12:05:13;;;;;;;4.15;3.72;;;27.80;43.00;;;;;;5072887;28;20332;-75
2021/06/08 12:07:47;;;;;;;4.70;4.18;;;27.90;43.70;;;;;;5080481;28;20044;-75
2021/06/08 12:10:40;;;;;;;6.40;3.85;;;28.00;42.30;;;;;;5092545;28;20042;-74
2021/06/08 12:13:06;;;;;;;6.93;4.35;;;28.00;42.60;;;;;;5093957;28;20020;-75
2021/06/08 12:15:36;;;;;;;4.32;3.78;;;27.90;41.90;;;;;;5092410;28;20024;-75
2021/06/08 12:18:11;;;;;;;7.18;4.20;;;27.90;42.50;;;;;;5092319;28;20075;-74
2021/06/08 12:20:43;;;;;;;5.65;5.15;;;27.90;43.70;;;;;;5093743;28;20094;-75
2021/06/08 12:23:10;;;;;;;8.32;4.95;;;27.90;43.70;;;;;;5073116;28;20028;-75
2021/06/08 12:25:36;;;;;;;11.85;6.32;;;28.00;43.90;;;;;;5055310;28;20058;-75
2021/06/08 12:28:09;;;;;;;7.72;5.95;;;28.10;44.20;;;;;;5073340;28;20016;-74
2021/06/08 12:30:35;;;;;;;7.00;4.60;;;28.10;42.40;;;;;;5081076;28;20020;-75
2021/06/08 12:33:03;;;;;;;6.32;4.85;;;28.10;43.30;;;;;;5092344;28;20028;-75
2021/06/08 12:35:37;;;;;;;6.32;4.47;;;28.20;43.40;;;;;;5092294;28;20031;-74
2021/06/08 12:38:21;;;;;;;7.28;5.38;;;28.40;44.20;;;;;;5093562;28;20051;-75
2021/06/08 12:41:03;;;;;;;6.57;5.13;;;28.50;43.60;;;;;;5092252;28;20024;-75
2021/06/08 12:43:52;;;;;;;9.80;6.20;;;28.50;44.10;;;;;;5093036;28;20024;-75
2021/06/08 12:46:37;;;;;;;6.43;5.63;;;28.50;43.10;;;;;;5072889;28;20027;-77
2021/06/08 12:49:17;;;;;;;6.95;6.18;;;28.40;43.80;;;;;;5071984;28;20055;-75
2021/06/08 12:51:45;;;;;;;8.40;5.18;;;28.40;43.50;;;;;;5073085;28;20020;-75
2021/06/08 12:54:31;;;;;;;5.70;4.30;;;28.30;43.80;;;;;;5071781;28;20024;-75
2021/06/08 12:56:59;;;;;;;7.50;4.85;;;28.50;43.90;;;;;;5071691;28;20119;-74
2021/06/08 12:59:27;;;;;;;6.28;5.03;;;28.60;42.50;;;;;;5071706;28;20024;-75
2021/06/08 13:01:54;;;;;;;6.68;4.07;;;28.60;40.70;;;;;;5073052;28;20016;-75